Time;durP1;ratioP1;P1;durP2;ratioP2;P2;SDS_P1;SDS_P2;PMS_P1;PMS_P2;Temp;Humidity;BMP_temperature;BMP_pressure;BME280_temperature;BME280_humidity;BME280_pressure;Samples;Min_cycle;Max_cycle;Signal;HPM_P1;HPM_P2
2021/12/03 00:00:36;;;;;;;2.37;0.97;;;;;;;11.93;64.74;98305.28;5136178;27;20604;-85
2021/12/03 00:03:03;;;;;;;1.53;0.80;;;;;;;11.98;64.10;98316.28;5117662;27;20184;-85
2021/12/03 00:05:28;;;;;;;1.27;0.77;;;;;;;12.03;64.11;98324.66;5117650;27;20185;-85
2021/12/03 00:07:54;;;;;;;2.07;1.10;;;;;;;11.92;64.48;98319.38;5117689;27;20199;-85
2021/12/03 00:10:23;;;;;;;1.57;0.83;;;;;;;11.69;65.42;98324.44;5117608;27;20183;-86
2021/12/03 00:12:48;;;;;;;6.77;1.33;;;;;;;11.64;65.65;98331.75;5135561;27;20578;-84
2021/12/03 00:15:14;;;;;;;3.07;1.17;;;;;;;11.65;65.61;98330.84;5117452;27;20167;-85
2021/12/03 00:17:40;;;;;;;2.27;1.00;;;;;;;11.70;65.57;98343.66;5117363;27;20183;-84
2021/12/03 00:20:09;;;;;;;4.87;1.30;;;;;;;11.79;65.56;98344.81;5117457;27;20191;-84
2021/12/03 00:22:35;;;;;;;3.10;1.20;;;;;;;11.74;65.75;98329.34;5117063;27;20235;-86
2021/12/03 00:25:00;;;;;;;1.97;0.77;;;;;;;11.88;65.08;98334.50;5135772;27;20202;-85
2021/12/03 00:27:26;;;;;;;1.87;0.73;;;;;;;11.93;64.86;98339.41;5135550;27;20171;-85
2021/12/03 00:29:51;;;;;;;1.70;0.90;;;;;;;12.07;64.39;98331.41;5135301;27;20175;-85
2021/12/03 00:32:16;;;;;;;1.73;1.03;;;;;;;12.08;64.30;98331.28;5135472;27;20179;-85
2021/12/03 00:34:42;;;;;;;3.33;1.60;;;;;;;12.05;64.31;98322.81;5117167;27;20167;-85
2021/12/03 00:37:07;;;;;;;1.20;0.50;;;;;;;12.01;64.61;98322.16;5135191;27;20216;-86
2021/12/03 00:39:33;;;;;;;4.53;0.70;;;;;;;12.12;64.21;98322.25;5135453;27;20176;-85
2021/12/03 00:42:00;;;;;;;1.77;1.00;;;;;;;11.95;64.48;98330.47;5135124;27;20238;-85
2021/12/03 00:44:28;;;;;;;2.23;1.37;;;;;;;11.94;64.86;98331.44;5135027;27;20198;-86
2021/12/03 00:46:54;;;;;;;1.60;0.73;;;;;;;11.90;64.71;98316.84;5135324;27;20164;-86
2021/12/03 00:49:19;;;;;;;2.23;0.80;;;;;;;11.94;64.23;98320.94;5135251;27;20179;-84
2021/12/03 00:51:45;;;;;;;3.97;1.13;;;;;;;11.92;63.96;98314.97;5116749;27;20175;-87
2021/12/03 00:54:13;;;;;;;2.57;1.00;;;;;;;12.01;63.38;98318.69;5134838;27;20581;-85
2021/12/03 00:56:38;;;;;;;1.97;0.97;;;;;;;12.15;63.63;98315.94;5116367;27;20184;-84
2021/12/03 00:59:04;;;;;;;5.13;0.90;;;;;;;12.30;63.02;98314.81;5134919;27;20177;-88
2021/12/03 01:01:29;;;;;;;1.10;0.70;;;;;;;12.31;63.05;98311.25;5134743;27;20632;-86
2021/12/03 01:03:55;;;;;;;1.07;0.70;;;;;;;12.39;63.40;98311.53;5135030;27;20671;-84
2021/12/03 01:06:20;;;;;;;6.67;1.00;;;;;;;12.51;62.67;98302.75;5134741;27;20209;-85
2021/12/03 01:08:45;;;;;;;1.70;0.83;;;;;;;12.39;62.87;98297.56;5116587;27;20630;-85
2021/12/03 01:11:12;;;;;;;3.13;1.10;;;;;;;12.40;62.44;98294.81;5134731;27;20173;-85
2021/12/03 01:13:39;;;;;;;1.83;0.63;;;;;;;12.47;62.76;98295.22;5134871;27;20178;-85
2021/12/03 01:16:06;;;;;;;8.23;2.50;;;;;;;12.52;62.14;98291.28;5116474;28;20173;-85
2021/12/03 01:18:32;;;;;;;2.30;0.80;;;;;;;12.45;62.70;98302.38;5134588;27;20213;-84
2021/12/03 01:20:58;;;;;;;1.70;0.87;;;;;;;12.46;62.65;98297.00;5134728;27;20602;-85
2021/12/03 01:23:24;;;;;;;3.07;1.20;;;;;;;12.43;62.81;98299.84;5116181;27;20209;-86
2021/12/03 01:25:49;;;;;;;2.30;1.00;;;;;;;12.58;61.83;98293.44;5134750;27;20200;-86
2021/12/03 01:28:16;;;;;;;1.53;0.83;;;;;;;12.61;61.55;98303.75;5134306;28;20582;-85
2021/12/03 01:30:42;;;;;;;2.00;0.83;;;;;;;12.66;61.65;98309.50;5134254;28;20169;-85
2021/12/03 01:33:07;;;;;;;3.60;1.33;;;;;;;12.57;61.92;98302.31;5134325;28;20181;-86
2021/12/03 01:35:38;;;;;;;1.63;0.70;;;;;;;12.51;62.00;98302.75;5134334;28;20657;-85
2021/12/03 01:38:05;;;;;;;3.53;1.00;;;;;;;12.69;61.67;98304.00;5116262;28;20619;-85
2021/12/03 01:40:33;;;;;;;1.03;0.50;;;;;;;12.73;60.76;98300.22;5116311;28;20207;-85
2021/12/03 01:42:59;;;;;;;1.73;0.90;;;;;;;12.67;61.53;98287.53;5134171;28;20169;-86
2021/12/03 01:45:29;;;;;;;2.07;1.10;;;;;;;12.82;61.02;98288.16;5134758;28;20178;-85
2021/12/03 01:47:56;;;;;;;1.60;0.83;;;;;;;12.74;60.78;98278.22;5134534;28;20172;-85
2021/12/03 01:50:30;;;;;;;3.43;0.73;;;;;;;12.66;60.74;98266.59;5134211;28;20535;-86
2021/12/03 01:52:56;;;;;;;2.97;0.60;;;;;;;12.76;61.01;98268.41;5116056;28;20168;-85
2021/12/03 01:55:22;;;;;;;1.93;0.73;;;;;;;12.74;60.91;98266.84;5134478;28;20520;-84
2021/12/03 01:57:48;;;;;;;3.77;1.37;;;;;;;12.72;60.89;98264.34;5134156;28;20176;-85
2021/12/03 02:00:25;;;;;;;1.97;1.10;;;;;;;12.70;61.20;98261.00;5134081;28;20174;-86
2021/12/03 02:02:51;;;;;;;2.03;0.83;;;;;;;12.75;61.19;98264.13;5134460;28;20177;-85
2021/12/03 02:05:16;;;;;;;1.23;0.80;;;;;;;12.84;60.70;98257.34;5115923;28;20591;-86
2021/12/03 02:07:44;;;;;;;1.40;0.83;;;;;;;12.88;60.08;98246.47;5134152;27;20186;-84
2021/12/03 02:10:10;;;;;;;2.93;1.03;;;;;;;12.90;60.13;98236.66;5138054;27;20262;-85
2021/12/03 02:12:36;;;;;;;0.67;0.40;;;;;;;13.05;59.73;98239.09;5138047;27;20181;-86
2021/12/03 02:15:02;;;;;;;2.87;0.70;;;;;;;13.10;59.73;98243.03;5137989;27;20181;-85
2021/12/03 02:17:28;;;;;;;3.47;2.03;;;;;;;12.97;60.11;98230.94;5137823;27;20181;-85
2021/12/03 02:19:54;;;;;;;2.77;1.00;;;;;;;12.87;60.21;98236.88;5137962;27;20524;-85
2021/12/03 02:22:19;;;;;;;0.70;0.50;;;;;;;13.06;59.70;98230.22;5137606;27;20173;-85
2021/12/03 02:24:45;;;;;;;1.30;0.70;;;;;;;13.08;59.73;98230.97;5137943;27;20193;-85
2021/12/03 02:27:10;;;;;;;1.73;0.90;;;;;;;12.94;60.44;98232.81;5137687;27;20203;-85
2021/12/03 02:29:36;;;;;;;1.70;0.83;;;;;;;12.98;60.11;98229.97;5119560;27;20170;-87
2021/12/03 02:32:02;;;;;;;1.97;1.20;;;;;;;12.89;60.72;98240.22;5137661;27;20173;-84
2021/12/03 02:34:27;;;;;;;2.07;0.70;;;;;;;13.08;60.53;98239.69;5137779;27;20247;-85
2021/12/03 02:36:53;;;;;;;2.00;0.67;;;;;;;13.16;59.97;98231.22;5137778;27;20257;-85
2021/12/03 02:39:18;;;;;;;2.33;1.00;;;;;;;13.18;59.54;98229.31;5137629;27;20175;-85
2021/12/03 02:41:44;;;;;;;1.77;0.80;;;;;;;13.30;59.46;98237.09;5137574;27;20166;-85
2021/12/03 02:44:09;;;;;;;1.53;0.70;;;;;;;13.43;58.95;98231.72;5137570;27;20267;-86
2021/12/03 02:46:35;;;;;;;3.83;0.77;;;;;;;13.42;58.86;98243.19;5137648;27;20180;-85
2021/12/03 02:49:00;;;;;;;0.93;0.40;;;;;;;13.56;58.30;98237.69;5137779;27;20178;-86
2021/12/03 02:51:26;;;;;;;1.80;0.77;;;;;;;13.60;58.18;98243.56;5137888;27;20178;-86
2021/12/03 02:53:51;;;;;;;2.27;1.00;;;;;;;13.63;58.16;98244.13;5137477;27;20171;-85
2021/12/03 02:56:17;;;;;;;1.50;0.63;;;;;;;13.70;57.56;98242.72;5137292;27;20254;-86
2021/12/03 02:58:42;;;;;;;1.70;1.00;;;;;;;13.84;57.37;98241.59;5137362;27;20199;-86
2021/12/03 03:01:10;;;;;;;7.13;0.83;;;;;;;13.85;56.91;98252.00;5118983;27;20619;-85
2021/12/03 03:03:35;;;;;;;4.20;0.70;;;;;;;13.83;57.11;98253.94;5136881;27;20199;-86
2021/12/03 03:06:03;;;;;;;1.03;0.70;;;;;;;13.84;57.34;98245.06;5136820;27;20587;-85
2021/12/03 03:08:30;;;;;;;2.23;0.73;;;;;;;13.95;56.82;98252.09;5118754;27;20179;-85
2021/12/03 03:10:57;;;;;;;2.33;0.70;;;;;;;13.90;56.80;98236.69;5136875;27;20262;-86
2021/12/03 03:13:23;;;;;;;5.17;0.90;;;;;;;14.07;56.28;98236.13;5136748;27;20198;-85
2021/12/03 03:15:49;;;;;;;1.90;0.77;;;;;;;14.09;56.28;98239.50;5136625;27;20625;-86
2021/12/03 03:18:22;;;;;;;2.50;0.90;;;;;;;14.14;56.09;98242.59;5136616;27;20262;-86
2021/12/03 03:20:48;;;;;;;3.33;0.93;;;;;;;14.18;55.92;98235.28;5136167;27;20174;-86
2021/12/03 03:23:15;;;;;;;1.67;0.73;;;;;;;14.20;55.72;98240.44;5118144;27;20204;-86
2021/12/03 03:25:42;;;;;;;2.37;1.10;;;;;;;14.30;55.92;98241.34;5136535;27;20174;-86
2021/12/03 03:28:10;;;;;;;3.30;0.93;;;;;;;14.47;55.38;98243.47;5136549;27;20175;-86
2021/12/03 03:30:37;;;;;;;3.10;1.03;;;;;;;14.55;54.59;98243.66;5136947;27;20186;-86
2021/12/03 03:33:03;;;;;;;2.87;1.53;;;;;;;14.51;54.57;98245.75;5136944;27;20179;-86
2021/12/03 03:35:29;;;;;;;1.53;0.80;;;;;;;14.83;53.88;98258.06;5118553;27;20174;-87
2021/12/03 03:37:55;;;;;;;1.70;0.87;;;;;;;14.88;53.55;98264.63;5136200;27;20175;-86
2021/12/03 03:40:20;;;;;;;4.33;1.10;;;;;;;14.90;53.33;98265.31;5118063;27;20672;-86
2021/12/03 03:42:46;;;;;;;1.50;0.80;;;;;;;14.68;53.54;98262.78;5136095;27;20175;-86
2021/12/03 03:45:15;;;;;;;7.93;1.10;;;;;;;14.40;54.61;98253.69;5117852;27;20278;-87
2021/12/03 03:47:41;;;;;;;2.53;0.80;;;;;;;14.16;55.79;98256.50;5118006;27;20190;-87
2021/12/03 03:50:08;;;;;;;3.90;0.87;;;;;;;14.20;55.92;98259.72;5117970;27;20612;-88
2021/12/03 03:52:35;;;;;;;4.97;1.10;;;;;;;14.41;55.42;98262.44;5136216;27;20179;-87
2021/12/03 03:55:01;;;;;;;1.30;0.60;;;;;;;14.28;55.58;98264.38;5136112;27;20250;-87
2021/12/03 03:57:27;;;;;;;3.27;0.77;;;;;;;14.38;55.20;98273.22;5135865;27;20317;-87
2021/12/03 03:59:53;;;;;;;4.43;1.40;;;;;;;14.33;55.45;98270.13;5135758;27;20628;-87
2021/12/03 04:02:19;;;;;;;1.80;0.90;;;;;;;14.27;55.65;98273.22;5117658;27;20584;-87
2021/12/03 04:04:44;;;;;;;3.57;0.73;;;;;;;14.18;56.22;98273.00;5117624;27;20194;-88
2021/12/03 04:07:10;;;;;;;2.53;0.93;;;;;;;13.93;56.67;98286.50;5135670;27;20254;-87
2021/12/03 04:09:35;;;;;;;2.83;0.90;;;;;;;14.03;56.51;98297.97;5117663;27;20542;-87
2021/12/03 04:12:00;;;;;;;1.77;0.60;;;;;;;14.01;56.79;98286.72;5135703;27;20654;-88
2021/12/03 04:14:26;;;;;;;1.57;0.80;;;;;;;14.15;56.83;98283.78;5136528;27;20174;-87
2021/12/03 04:16:51;;;;;;;2.20;0.83;;;;;;;14.29;56.77;98282.69;5118075;27;20598;-86
2021/12/03 04:19:18;;;;;;;3.17;0.90;;;;;;;14.39;56.23;98288.91;5136540;27;20205;-88
2021/12/03 04:21:44;;;;;;;6.37;0.83;;;;;;;14.43;56.24;98298.25;5136069;27;20167;-87
2021/12/03 04:24:10;;;;;;;4.67;1.17;;;;;;;14.62;55.95;98300.25;5117341;27;20298;-87
2021/12/03 04:26:35;;;;;;;3.60;1.37;;;;;;;14.73;55.62;98297.53;5135866;27;20290;-86
2021/12/03 04:29:01;;;;;;;1.67;0.83;;;;;;;14.62;55.80;98294.97;5135972;27;20683;-86
2021/12/03 04:31:28;;;;;;;2.33;0.93;;;;;;;14.55;56.67;98291.13;5134954;27;20659;-86
2021/12/03 04:33:54;;;;;;;6.33;0.97;;;;;;;14.58;56.90;98297.00;5135735;27;20576;-86
2021/12/03 04:36:20;;;;;;;3.07;0.70;;;;;;;14.82;56.21;98302.06;5135285;27;20620;-86
2021/12/03 04:38:45;;;;;;;1.97;0.63;;;;;;;14.89;55.85;98300.56;5117089;27;20644;-86
2021/12/03 04:41:11;;;;;;;10.63;2.03;;;;;;;14.85;56.39;98300.97;5135097;27;20179;-85
2021/12/03 04:43:36;;;;;;;1.43;0.63;;;;;;;14.56;57.40;98290.19;5117000;27;20559;-85
2021/12/03 04:46:02;;;;;;;1.60;0.70;;;;;;;14.40;58.05;98293.25;5135296;27;20175;-85
2021/12/03 04:48:28;;;;;;;1.90;0.53;;;;;;;14.28;58.94;98290.72;5134971;27;20175;-85
2021/12/03 04:50:53;;;;;;;3.60;0.93;;;;;;;14.32;58.98;98294.81;5135534;27;20182;-84
2021/12/03 04:53:19;;;;;;;0.97;0.50;;;;;;;14.28;59.38;98296.81;5134962;27;20179;-85
2021/12/03 04:55:45;;;;;;;4.47;1.20;;;;;;;14.29;59.51;98289.75;5135181;27;20183;-85
2021/12/03 04:58:10;;;;;;;1.40;0.90;;;;;;;14.32;59.40;98293.03;5134918;27;20254;-85
2021/12/03 05:00:46;;;;;;;5.17;1.20;;;;;;;14.43;58.91;98281.59;5134831;27;20206;-84
2021/12/03 05:03:12;;;;;;;1.63;0.80;;;;;;;14.54;58.86;98276.28;5135027;27;20159;-85
2021/12/03 05:05:38;;;;;;;3.13;1.17;;;;;;;14.56;58.65;98274.34;5134692;27;20179;-86
2021/12/03 05:08:07;;;;;;;6.43;0.57;;;;;;;14.52;58.85;98279.03;5134696;27;20186;-86
2021/12/03 05:10:36;;;;;;;1.60;0.63;;;;;;;14.70;58.39;98271.44;5135108;27;20170;-85
2021/12/03 05:13:25;;;;;;;1.77;1.03;;;;;;;14.73;58.67;98282.53;5134881;27;20613;-85
2021/12/03 05:15:51;;;;;;;2.60;0.50;;;;;;;14.74;58.91;98288.66;5117289;27;20183;-86
2021/12/03 05:18:19;;;;;;;1.30;0.30;;;;;;;14.82;58.47;98291.50;5134901;27;20547;-85
2021/12/03 05:20:47;;;;;;;1.67;0.70;;;;;;;14.88;58.69;98301.56;5134504;27;20186;-87
2021/12/03 05:23:13;;;;;;;4.53;1.23;;;;;;;14.95;58.32;98302.72;5134459;27;20259;-85
2021/12/03 05:25:40;;;;;;;12.27;1.23;;;;;;;15.01;57.98;98304.84;5134775;27;20202;-86
2021/12/03 05:28:06;;;;;;;4.50;0.93;;;;;;;14.89;58.33;98297.94;5134421;27;20191;-85
2021/12/03 05:30:33;;;;;;;5.23;0.70;;;;;;;14.84;58.62;98301.91;5116291;28;20183;-85
2021/12/03 05:32:59;;;;;;;1.03;0.50;;;;;;;14.91;58.38;98290.72;5116233;28;20175;-85
2021/12/03 05:35:26;;;;;;;2.53;0.70;;;;;;;14.90;58.47;98304.91;5134514;28;20178;-86
2021/12/03 05:37:52;;;;;;;3.83;0.60;;;;;;;14.97;58.27;98306.06;5134347;28;20244;-86
2021/12/03 05:40:18;;;;;;;1.67;0.70;;;;;;;15.01;58.14;98307.50;5116147;28;20708;-85
2021/12/03 05:42:45;;;;;;;2.63;1.00;;;;;;;14.95;58.51;98307.16;5136161;27;20167;-85
2021/12/03 05:45:13;;;;;;;2.17;1.17;;;;;;;15.00;58.65;98316.34;5120430;27;20231;-85
2021/12/03 05:47:39;;;;;;;7.33;1.40;;;;;;;15.05;58.41;98319.44;5138509;27;20534;-85
2021/12/03 05:50:08;;;;;;;3.80;1.03;;;;;;;15.09;58.55;98323.53;5138553;27;20176;-85
2021/12/03 05:52:34;;;;;;;2.10;1.10;;;;;;;14.89;59.24;98334.03;5138330;27;20233;-85
2021/12/03 05:54:59;;;;;;;2.23;1.07;;;;;;;14.82;59.81;98331.09;5138645;27;20172;-85
2021/12/03 05:57:25;;;;;;;5.93;1.40;;;;;;;14.74;60.62;98318.53;5138229;27;20202;-85
2021/12/03 05:59:50;;;;;;;3.63;1.10;;;;;;;14.64;61.04;98330.78;5138290;27;20177;-85
2021/12/03 06:02:16;;;;;;;3.80;1.67;;;;;;;14.53;61.99;98329.97;5138196;27;20241;-85
2021/12/03 06:04:41;;;;;;;6.27;1.63;;;;;;;14.64;61.67;98335.22;5138081;27;20210;-84
2021/12/03 06:07:07;;;;;;;2.80;0.90;;;;;;;14.81;61.50;98336.47;5120058;27;20176;-85
2021/12/03 06:09:32;;;;;;;4.43;1.60;;;;;;;14.93;61.07;98340.75;5120007;27;20172;-85
2021/12/03 06:11:59;;;;;;;6.37;1.20;;;;;;;15.12;60.61;98340.91;5137990;27;20706;-86
2021/12/03 06:14:25;;;;;;;12.53;1.60;;;;;;;15.21;60.31;98351.53;5138598;27;20194;-85
2021/12/03 06:16:51;;;;;;;4.10;1.23;;;;;;;15.42;59.75;98356.78;5137834;27;20557;-86
2021/12/03 06:19:16;;;;;;;9.33;2.47;;;;;;;15.74;58.91;98357.56;5138499;27;20228;-86
2021/12/03 06:21:41;;;;;;;6.07;1.90;;;;;;;16.21;57.20;98361.38;5138090;27;20630;-86
2021/12/03 06:24:07;;;;;;;4.83;1.03;;;;;;;16.40;56.32;98364.06;5138059;27;20210;-86
2021/12/03 06:26:32;;;;;;;5.07;2.10;;;;;;;16.42;56.06;98362.13;5137891;27;20615;-86
2021/12/03 06:28:58;;;;;;;3.20;0.83;;;;;;;16.38;56.14;98368.66;5138199;27;20172;-86
2021/12/03 06:31:23;;;;;;;1.17;0.70;;;;;;;16.54;55.83;98369.00;5138296;27;20178;-86
2021/12/03 06:33:50;;;;;;;9.07;0.90;;;;;;;16.78;55.08;98370.41;5119524;27;20315;-86
2021/12/03 06:36:15;;;;;;;2.27;0.87;;;;;;;16.80;54.49;98381.69;5119423;27;20181;-85
2021/12/03 06:38:41;;;;;;;3.27;1.10;;;;;;;16.84;54.44;98364.59;5137625;27;20611;-86
2021/12/03 06:41:08;;;;;;;3.70;1.10;;;;;;;16.81;54.47;98373.63;5137406;27;20616;-86
2021/12/03 06:43:34;;;;;;;4.63;1.03;;;;;;;16.79;54.48;98387.97;5119534;27;20209;-87
2021/12/03 06:45:59;;;;;;;2.97;0.97;;;;;;;16.78;54.73;98381.84;5119691;27;20201;-86
2021/12/03 06:48:25;;;;;;;2.97;1.33;;;;;;;16.89;54.67;98376.44;5137317;27;20178;-86
2021/12/03 06:50:51;;;;;;;1.93;0.77;;;;;;;16.78;54.80;98383.66;5119158;27;20742;-86
2021/12/03 06:53:20;;;;;;;4.73;1.40;;;;;;;16.77;55.05;98382.81;5119989;27;20529;-86
2021/12/03 06:55:52;;;;;;;3.97;1.17;;;;;;;16.82;55.37;98385.06;5137020;27;20168;-86
2021/12/03 06:58:20;;;;;;;6.10;1.10;;;;;;;16.90;54.76;98371.97;5137751;27;20162;-86
2021/12/03 07:00:50;;;;;;;2.63;1.37;;;;;;;17.10;54.48;98378.94;5137165;27;20247;-86
2021/12/03 07:03:16;;;;;;;5.33;1.40;;;;;;;17.23;53.91;98382.16;5137120;27;20170;-86
2021/12/03 07:05:42;;;;;;;6.83;1.70;;;;;;;17.38;53.68;98372.78;5119307;27;20194;-86
2021/12/03 07:08:07;;;;;;;9.83;2.77;;;;;;;17.28;53.57;98366.66;5136971;27;20207;-87
2021/12/03 07:10:34;;;;;;;3.80;2.40;;;;;;;17.11;54.27;98373.50;5137283;27;20623;-85
2021/12/03 07:13:00;;;;;;;6.77;2.00;;;;;;;17.02;54.96;98374.34;5137281;27;20175;-86
2021/12/03 07:15:25;;;;;;;5.57;1.30;;;;;;;16.84;56.20;98372.53;5136776;27;20586;-85
2021/12/03 07:17:51;;;;;;;4.90;1.30;;;;;;;16.60;56.92;98386.13;5118671;27;20180;-85
2021/12/03 07:20:22;;;;;;;4.83;2.10;;;;;;;16.44;57.66;98383.97;5136695;27;20169;-85
2021/12/03 07:22:48;;;;;;;5.80;2.23;;;;;;;16.60;57.73;98391.44;5136661;27;20556;-87
2021/12/03 07:25:14;;;;;;;4.87;2.10;;;;;;;16.66;57.77;98390.06;5118602;27;20202;-84
2021/12/03 07:27:40;;;;;;;8.77;2.30;;;;;;;16.68;57.60;98390.75;5136684;27;20623;-85
2021/12/03 07:30:08;;;;;;;5.90;1.37;;;;;;;16.74;57.46;98387.56;5118566;27;20636;-85
2021/12/03 07:32:33;;;;;;;3.17;1.43;;;;;;;16.85;57.17;98395.38;5136450;27;20228;-85
2021/12/03 07:34:59;;;;;;;1.73;0.90;;;;;;;16.75;57.27;98405.09;5136562;27;20171;-87
2021/12/03 07:37:25;;;;;;;8.17;1.63;;;;;;;16.93;57.02;98392.84;5136497;27;20193;-85
2021/12/03 07:39:50;;;;;;;4.80;1.40;;;;;;;17.13;56.69;98405.16;5136470;27;20584;-85
2021/12/03 07:42:16;;;;;;;2.03;1.03;;;;;;;17.34;55.64;98411.13;5136377;27;20664;-85
2021/12/03 07:44:42;;;;;;;4.20;1.03;;;;;;;17.46;55.58;98412.66;5136572;27;20190;-85
2021/12/03 07:47:08;;;;;;;2.67;0.40;;;;;;;17.50;55.25;98422.00;5136637;27;20185;-85
2021/12/03 07:49:34;;;;;;;2.03;0.90;;;;;;;17.65;54.56;98409.19;5118072;27;20171;-85
2021/12/03 07:51:59;;;;;;;6.27;1.23;;;;;;;17.78;54.66;98413.19;5136562;27;20608;-85
2021/12/03 07:54:25;;;;;;;4.43;1.10;;;;;;;17.90;54.45;98418.34;5117983;27;20182;-86
2021/12/03 07:56:50;;;;;;;1.57;0.60;;;;;;;17.95;53.46;98419.56;5118010;27;20198;-87
2021/12/03 07:59:16;;;;;;;2.83;0.80;;;;;;;18.02;53.62;98418.00;5135996;27;20175;-85
2021/12/03 08:01:43;;;;;;;4.93;0.60;;;;;;;18.36;53.67;98419.13;5135959;27;20631;-85
2021/12/03 08:04:10;;;;;;;4.47;0.87;;;;;;;18.46;52.72;98421.75;5136086;27;20263;-86
2021/12/03 08:06:39;;;;;;;1.93;1.03;;;;;;;18.70;51.84;98405.28;5134798;27;20580;-86
2021/12/03 08:09:05;;;;;;;4.93;0.63;;;;;;;18.79;51.03;98404.38;5135835;27;20593;-86
2021/12/03 08:11:30;;;;;;;6.43;1.23;;;;;;;18.78;51.40;98411.53;5117668;27;20187;-86
2021/12/03 08:13:55;;;;;;;3.23;0.47;;;;;;;18.87;50.51;98407.13;5135776;27;20545;-86
2021/12/03 08:16:21;;;;;;;2.27;0.70;;;;;;;18.87;50.51;98418.59;5135629;27;20171;-87
2021/12/03 08:18:46;;;;;;;3.37;0.67;;;;;;;18.94;50.75;98413.53;5117718;27;20174;-87
2021/12/03 08:21:12;;;;;;;1.33;0.57;;;;;;;18.88;50.54;98411.47;5135811;27;20619;-86
2021/12/03 08:23:37;;;;;;;1.43;0.60;;;;;;;18.88;50.80;98414.13;5135269;27;20213;-86
2021/12/03 08:26:03;;;;;;;4.90;0.80;;;;;;;19.05;50.28;98405.31;5117362;27;20183;-86
2021/12/03 08:28:28;;;;;;;6.13;1.60;;;;;;;19.14;49.14;98404.41;5135530;27;20207;-86
2021/12/03 08:30:53;;;;;;;1.37;0.50;;;;;;;19.13;49.00;98399.28;5135759;27;20170;-86
2021/12/03 08:33:20;;;;;;;1.57;0.80;;;;;;;19.02;49.04;98395.81;5117274;27;20238;-87
2021/12/03 08:35:46;;;;;;;1.30;0.50;;;;;;;19.01;49.49;98399.50;5135298;27;20214;-85
2021/12/03 08:38:12;;;;;;;2.87;0.60;;;;;;;19.20;49.06;98393.19;5135400;27;20635;-87
2021/12/03 08:40:37;;;;;;;1.70;0.70;;;;;;;19.25;48.17;98388.25;5117168;27;20291;-87
2021/12/03 08:43:03;;;;;;;10.37;1.67;;;;;;;19.13;48.65;98375.38;5117039;27;20186;-86
2021/12/03 08:45:28;;;;;;;2.20;0.80;;;;;;;19.16;48.74;98367.06;5117028;27;20202;-86
2021/12/03 08:47:58;;;;;;;4.80;0.90;;;;;;;19.26;48.50;98357.22;5135304;27;20263;-85
2021/12/03 08:50:32;;;;;;;7.47;2.10;;;;;;;19.35;48.23;98349.13;5136092;27;20220;-85
2021/12/03 08:55:51;;;;;;;3.17;1.40;;;;;;;19.18;48.73;98335.88;5103485;27;20190;-86
2021/12/03 08:58:17;;;;;;;1.03;0.50;;;;;;;19.30;48.74;98329.31;5134877;27;20253;-86
2021/12/03 09:00:43;;;;;;;2.37;1.23;;;;;;;19.20;48.53;98324.13;5134958;27;20202;-87
2021/12/03 09:03:09;;;;;;;0.93;0.47;;;;;;;19.03;49.20;98333.75;5135133;27;20177;-85
2021/12/03 09:05:36;;;;;;;2.30;0.53;;;;;;;18.97;48.51;98322.94;5135181;27;20222;-87
2021/12/03 09:08:02;;;;;;;3.70;0.93;;;;;;;19.00;48.60;98322.59;5116557;27;20182;-86
2021/12/03 09:10:27;;;;;;;1.70;0.80;;;;;;;19.00;48.25;98327.91;5116641;27;20185;-86
2021/12/03 09:12:54;;;;;;;1.27;0.57;;;;;;;18.94;47.90;98310.78;5116468;27;20189;-86
2021/12/03 09:15:43;;;;;;;1.20;0.50;;;;;;;19.12;48.10;98307.28;5134636;27;20186;-87
2021/12/03 09:23:11;;;;;;;4.43;0.43;;;;;;;19.39;46.93;98308.00;5134510;27;20557;-87
2021/12/03 09:25:44;;;;;;;0.77;0.30;;;;;;;19.33;46.33;98307.75;5116370;27;20194;-87
2021/12/03 09:28:12;;;;;;;1.30;0.60;;;;;;;19.33;46.30;98308.59;5116412;27;20174;-86
2021/12/03 09:30:41;;;;;;;3.63;0.90;;;;;;;19.18;46.32;98301.34;5134888;27;20181;-86
2021/12/03 09:33:09;;;;;;;1.57;0.60;;;;;;;19.28;46.57;98299.44;5116297;28;20189;-88
2021/12/03 09:35:41;;;;;;;4.90;0.77;;;;;;;18.99;47.16;98297.88;5116264;28;20541;-89
2021/12/03 09:38:06;;;;;;;2.67;0.90;;;;;;;18.92;47.08;98314.56;5116909;28;20190;-89
2021/12/03 09:40:35;;;;;;;1.23;0.50;;;;;;;19.01;47.43;98306.53;5134296;28;20637;-88
2021/12/03 09:43:01;;;;;;;0.53;0.30;;;;;;;19.26;47.10;98310.19;5134206;28;20183;-86
2021/12/03 09:45:28;;;;;;;3.53;0.80;;;;;;;19.20;47.28;98299.38;5116330;28;20213;-86
2021/12/03 09:47:54;;;;;;;2.60;0.60;;;;;;;19.52;46.61;98299.63;5116301;28;20192;-85
2021/12/03 09:50:19;;;;;;;0.47;0.10;;;;;;;19.94;45.23;98292.50;5134321;28;20182;-86
2021/12/03 09:55:15;;;;;;;2.27;0.50;;;;;;;20.51;44.73;98295.41;5134187;28;20197;-87
2021/12/03 10:00:57;;;;;;;4.93;0.33;;;;;;;20.78;43.51;98287.09;5134088;28;20220;-87
2021/12/03 10:18:51;;;;;;;1.93;0.50;;;;;;;21.58;41.54;98259.59;5133995;28;20163;-86
2021/12/03 10:36:21;;;;;;;1.07;0.43;;;;;;;21.46;42.07;98265.47;5138106;27;20155;-88
2021/12/03 10:39:00;;;;;;;1.03;0.50;;;;;;;21.35;42.51;98264.81;5138053;27;20223;-87
2021/12/03 10:41:32;;;;;;;5.30;1.17;;;;;;;21.16;42.40;98267.84;5119239;27;20167;-87
2021/12/03 10:49:33;;;;;;;4.07;0.70;;;;;;;21.40;42.77;98245.66;5137972;27;20603;-89
2021/12/03 13:01:17;;;;;;;3.07;1.03;;;;;;;21.06;40.04;98200.56;5134936;27;20159;-85
2021/12/03 13:20:53;;;;;;;2.37;0.60;;;;;;;20.01;44.41;98240.34;5135117;27;20182;-85
2021/12/03 13:26:56;;;;;;;3.10;0.70;;;;;;;19.98;44.40;98239.84;5135311;27;20521;-86
2021/12/03 14:45:14;;;;;;;5.67;1.40;;;;;;;18.45;49.44;98252.88;5137747;27;20194;-87
2021/12/03 14:50:30;;;;;;;3.73;1.43;;;;;;;18.48;49.39;98247.31;5137776;27;20178;-88
2021/12/03 14:55:33;;;;;;;2.53;1.00;;;;;;;18.10;51.79;98258.16;5138027;27;20154;-88
2021/12/03 14:58:32;;;;;;;2.13;1.00;;;;;;;18.02;52.34;98247.47;5137228;27;20265;-88
2021/12/03 15:00:58;;;;;;;56.67;16.10;;;;;;;18.10;52.64;98236.94;5136729;27;20190;-88
2021/12/03 15:06:04;;;;;;;3.50;0.97;;;;;;;17.79;54.62;98245.19;5136974;27;20202;-87
2021/12/03 15:08:42;;;;;;;4.40;1.73;;;;;;;17.84;55.15;98251.88;5137111;27;20151;-88
2021/12/03 16:08:35;;;;;;;8.37;1.77;;;;;;;17.43;58.77;98300.81;5135732;27;20171;-89
2021/12/03 16:14:01;;;;;;;10.67;2.23;;;;;;;17.58;58.45;98307.38;5136257;27;20616;-89
2021/12/03 16:26:53;;;;;;;7.83;2.27;;;;;;;17.41;60.26;98316.88;5134914;27;20634;-89
2021/12/03 16:46:09;;;;;;;6.57;2.43;;;;;;;17.19;62.41;98319.81;5135541;27;20315;-91
2021/12/03 16:54:08;;;;;;;6.97;2.17;;;;;;;17.19;62.49;98318.03;5135763;27;20600;-90
2021/12/03 16:56:35;;;;;;;8.90;2.47;;;;;;;17.20;62.13;98325.00;5134917;27;20589;-90
2021/12/03 16:59:02;;;;;;;8.60;2.40;;;;;;;17.16;62.20;98334.19;5134694;27;20175;-90
2021/12/03 17:10:03;;;;;;;13.20;2.77;;;;;;;17.10;62.16;98325.97;5134927;27;20159;-89
2021/12/03 17:44:55;;;;;;;14.77;3.17;;;;;;;16.44;64.90;98365.47;5141433;27;20621;-89
2021/12/03 17:49:56;;;;;;;3.30;1.23;;;;;;;16.58;64.36;98351.06;5141457;27;20198;-90
2021/12/03 18:00:23;;;;;;;12.23;2.27;;;;;;;16.92;61.64;98354.13;5141077;27;20183;-91
2021/12/03 18:02:51;;;;;;;12.57;2.00;;;;;;;16.86;61.18;98350.22;5122964;27;20220;-91
2021/12/03 18:10:44;;;;;;;4.87;1.80;;;;;;;16.64;61.53;98345.19;5141310;27;20242;-91
2021/12/03 18:56:43;;;;;;;3.97;1.17;;;;;;;16.90;61.13;98326.97;5137619;27;20290;-89
2021/12/03 18:59:05;;;;;;;4.37;1.67;;;;;;;16.89;61.22;98333.25;5136631;27;20194;-89
2021/12/03 19:01:32;;;;;;;7.50;2.20;;;;;;;16.93;62.07;98332.81;5137273;27;20163;-89
2021/12/03 19:06:28;;;;;;;4.60;1.70;;;;;;;16.89;64.12;98328.78;5137416;27;20207;-90
2021/12/03 19:09:30;;;;;;;15.43;2.50;;;;;;;16.90;65.09;98322.50;5118884;27;20506;-90
2021/12/03 19:11:54;;;;;;;7.97;1.63;;;;;;;16.77;66.53;98335.16;5132722;27;20203;-91
2021/12/03 19:14:21;;;;;;;7.23;2.03;;;;;;;16.64;66.90;98329.31;5137178;27;20504;-91
2021/12/03 19:16:47;;;;;;;8.17;1.17;;;;;;;16.74;67.00;98329.34;5136825;27;20189;-92
2021/12/03 19:19:15;;;;;;;6.87;1.40;;;;;;;16.93;66.19;98332.81;5136934;27;20624;-91
2021/12/03 19:21:43;;;;;;;3.70;1.03;;;;;;;16.99;66.20;98336.72;5118783;27;20182;-91
2021/12/03 19:24:10;;;;;;;5.77;2.10;;;;;;;16.98;65.66;98340.34;5118705;27;20241;-92
2021/12/03 19:26:42;;;;;;;14.33;4.53;;;;;;;17.00;66.27;98341.88;5136676;27;20170;-91
2021/12/03 19:29:08;;;;;;;8.00;2.37;;;;;;;17.09;66.06;98333.09;5118628;27;20159;-91
2021/12/03 19:31:35;;;;;;;5.70;1.90;;;;;;;17.19;65.22;98330.41;5136551;27;20171;-91